Time;durP1;ratioP1;P1;durP2;ratioP2;P2;SDS_P1;SDS_P2;PMS_P1;PMS_P2;Temp;Humidity;BMP_temperature;BMP_pressure;BME280_temperature;BME280_humidity;BME280_pressure;Samples;Min_cycle;Max_cycle;Signal;HPM_P1;HPM_P2
2022/05/05 00:00:06;;;;;;;;;;;;;;;3.83;55.59;100027.32;1662491;84;20104;-74
2022/05/05 00:02:35;;;;;;;;;;;;;;;3.77;55.76;100035.69;1680088;84;20115;-74
2022/05/05 00:05:03;;;;;;;;;;;;;;;3.70;55.77;100035.90;1681837;85;20134;-74
2022/05/05 00:07:29;;;;;;;;;;;;;;;3.64;56.03;100036.39;1671147;85;21113;-74
2022/05/05 00:09:55;;;;;;;;;;;;;;;3.58;55.85;100039.32;1683965;85;20160;-74
2022/05/05 00:15:07;;;;;;;;;;;;;;;3.48;56.34;100044.66;1667215;84;20184;-73
2022/05/05 00:17:34;;;;;;;;;;;;;;;3.41;56.78;100045.42;1670588;83;20170;-73
2022/05/05 00:20:01;;;;;;;;;;;;;;;3.36;57.57;100053.52;1664388;83;21201;-73
2022/05/05 00:22:27;;;;;;;;;;;;;;;3.33;58.51;100052.14;1666881;85;20131;-73
2022/05/05 00:24:53;;;;;;;;;;;;;;;3.28;58.45;100057.51;1675871;84;20103;-73
2022/05/05 00:27:21;;;;;;;;;;;;;;;3.24;59.16;100054.48;1667650;84;20112;-72
2022/05/05 00:29:48;;;;;;;;;;;;;;;3.19;59.83;100061.21;1668288;85;20096;-73
2022/05/05 00:32:15;;;;;;;;;;;;;;;3.14;60.08;100062.51;1665947;84;21151;-74
2022/05/05 00:34:42;;;;;;;;;;;;;;;3.07;60.26;100059.17;1662299;84;20147;-73
2022/05/05 00:37:08;;;;;;;;;;;;;;;2.97;60.50;100067.19;1688751;85;20169;-74
2022/05/05 00:39:35;;;;;;;;;;;;;;;2.86;60.75;100072.23;1674331;83;20088;-74
2022/05/05 00:42:03;;;;;;;;;;;;;;;2.74;62.00;100068.83;1664505;84;20167;-73
2022/05/05 00:44:30;;;;;;;;;;;;;;;2.66;62.97;100074.14;1677561;84;21158;-72
2022/05/05 00:46:57;;;;;;;;;;;;;;;2.60;63.20;100074.61;1688668;85;20419;-73
2022/05/05 00:49:24;;;;;;;;;;;;;;;2.57;62.69;100072.40;1675436;84;20455;-73
2022/05/05 00:51:50;;;;;;;;;;;;;;;2.59;62.64;100082.45;1666795;84;20093;-73
2022/05/05 00:54:16;;;;;;;;;;;;;;;2.62;62.42;100078.42;1669128;84;20441;-72
2022/05/05 00:56:44;;;;;;;;;;;;;;;2.65;62.41;100077.92;1678510;84;21120;-73
2022/05/05 00:59:11;;;;;;;;;;;;;;;2.69;62.63;100085.02;1666861;84;20100;-73
2022/05/05 01:01:37;;;;;;;;;;;;;;;2.70;62.61;100079.34;1663309;85;20167;-73
2022/05/05 01:04:05;;;;;;;;;;;;;;;2.71;62.57;100086.95;1659499;84;20915;-73
2022/05/05 01:06:32;;;;;;;;;;;;;;;2.75;63.13;100092.16;1634208;86;20135;-73
2022/05/05 01:08:59;;;;;;;;;;;;;;;2.75;62.76;100092.16;1595436;87;21150;-73
2022/05/05 01:11:28;;;;;;;;;;;;;;;2.75;62.45;100088.91;1644039;85;20434;-73
2022/05/05 01:13:54;;;;;;;;;;;;;;;2.77;63.08;100090.83;1654501;85;20165;-73
2022/05/05 01:16:23;;;;;;;;;;;;;;;2.77;62.70;100094.08;1626831;86;21390;-73
2022/05/05 01:18:51;;;;;;;;;;;;;;;2.77;62.41;100093.55;1656684;85;20212;-72
2022/05/05 01:21:21;;;;;;;;;;;;;;;2.76;62.42;100095.97;1660006;84;21784;-73
2022/05/05 01:23:47;;;;;;;;;;;;;;;2.72;62.33;100095.37;1661499;84;20113;-73
2022/05/05 01:28:58;;;;;;;;;;;;;;;2.70;62.61;100102.39;1676216;83;20120;-74
2022/05/05 01:31:25;;;;;;;;;;;;;;;2.71;62.95;100105.92;1682300;85;20120;-74
2022/05/05 01:33:52;;;;;;;;;;;;;;;2.67;63.44;100107.50;1683918;85;21069;-74
2022/05/05 01:36:19;;;;;;;;;;;;;;;2.59;63.69;100107.39;1676076;84;20099;-74
2022/05/05 01:38:47;;;;;;;;;;;;;;;2.55;63.63;100102.18;1655952;84;32721;-73
2022/05/05 01:41:14;;;;;;;;;;;;;;;2.55;63.76;100109.77;1675045;84;20618;-74
2022/05/05 01:43:43;;;;;;;;;;;;;;;2.51;64.24;100111.34;1661817;85;20177;-74
2022/05/05 01:46:09;;;;;;;;;;;;;;;2.44;64.78;100105.27;1677558;84;21177;-73
2022/05/05 01:48:36;;;;;;;;;;;;;;;2.41;64.45;100109.84;1677513;85;20175;-74
2022/05/05 01:51:03;;;;;;;;;;;;;;;2.37;65.08;100108.69;1677167;85;20135;-74
2022/05/05 01:53:36;;;;;;;;;;;;;;;2.35;64.72;100111.36;1671989;83;20618;-75
2022/05/05 01:55:57;;;;;;;;;;;;;;;2.34;64.33;100110.54;1674586;83;20123;-74
2022/05/05 01:58:24;;;;;;;;;;;;;;;2.36;64.20;100107.58;1679438;83;21157;-75
2022/05/05 02:00:50;;;;;;;;;;;;;;;2.36;64.01;100117.06;1695852;83;20103;-73
2022/05/05 02:03:18;;;;;;;;;;;;;;;2.32;64.48;100118.09;1662414;82;20394;-73
2022/05/05 02:05:47;;;;;;;;;;;;;;;2.28;64.56;100118.33;1684647;85;20176;-74
2022/05/05 02:08:13;;;;;;;;;;;;;;;2.24;64.82;100117.19;1675643;83;20100;-74
2022/05/05 02:10:40;;;;;;;;;;;;;;;2.14;65.44;100117.84;1660656;85;21105;-73
2022/05/05 02:13:07;;;;;;;;;;;;;;;1.98;65.59;100118.13;1660508;84;20467;-73
2022/05/05 02:15:34;;;;;;;;;;;;;;;1.82;66.04;100123.52;1657824;85;20148;-74
2022/05/05 02:18:11;;;;;;;;;;;;;;;1.68;66.63;100123.57;1659358;84;20152;-73
2022/05/05 02:20:38;;;;;;;;;;;;;;;1.56;67.22;100129.86;1698619;84;20150;-73
2022/05/05 02:23:05;;;;;;;;;;;;;;;1.46;67.79;100126.96;1678998;84;22114;-73
2022/05/05 02:25:33;;;;;;;;;;;;;;;1.38;68.39;100130.05;1676330;84;20104;-73
2022/05/05 02:28:00;;;;;;;;;;;;;;;1.35;68.73;100132.41;1673560;84;20095;-74
2022/05/05 02:30:28;;;;;;;;;;;;;;;1.32;68.90;100140.48;1656728;85;20169;-74
2022/05/05 02:32:55;;;;;;;;;;;;;;;1.29;69.11;100143.66;1664613;84;20151;-74
2022/05/05 02:35:21;;;;;;;;;;;;;;;1.22;69.56;100141.63;1676911;84;21917;-73
2022/05/05 02:40:34;;;;;;;;;;;;;;;1.16;70.24;100143.94;1688562;84;20463;-74
2022/05/05 02:43:01;;;;;;;;;;;;;;;1.21;70.30;100150.27;1684064;85;20144;-74
2022/05/05 02:45:27;;;;;;;;;;;;;;;1.24;70.15;100153.85;1668195;85;20124;-72
2022/05/05 02:47:54;;;;;;;;;;;;;;;1.28;70.15;100151.48;1669239;84;21813;-74
2022/05/05 02:50:20;;;;;;;;;;;;;;;1.32;70.05;100150.77;1683937;84;20099;-74
2022/05/05 02:52:47;;;;;;;;;;;;;;;1.37;70.08;100151.94;1666905;84;20124;-74
2022/05/05 02:55:13;;;;;;;;;;;;;;;1.36;70.36;100158.41;1672440;84;20092;-73
2022/05/05 02:57:41;;;;;;;;;;;;;;;1.33;70.54;100156.47;1669701;85;20128;-73
2022/05/05 03:00:11;;;;;;;;;;;;;;;1.35;70.59;100159.47;1666713;85;21161;-73
2022/05/05 03:02:37;;;;;;;;;;;;;;;1.40;70.32;100167.69;1670146;84;20131;-74
2022/05/05 03:05:05;;;;;;;;;;;;;;;1.48;70.10;100171.36;1668238;84;20096;-75
2022/05/05 03:07:31;;;;;;;;;;;;;;;1.53;69.99;100176.34;1653830;85;20100;-75
2022/05/05 03:09:57;;;;;;;;;;;;;;;1.57;69.87;100176.69;1678074;83;20100;-74
2022/05/05 03:12:24;;;;;;;;;;;;;;;1.64;69.63;100174.66;1660378;83;20763;-74
2022/05/05 03:14:50;;;;;;;;;;;;;;;1.73;69.35;100173.20;1670331;84;20104;-73
2022/05/05 03:17:17;;;;;;;;;;;;;;;1.84;69.17;100183.66;1667073;84;20099;-73
2022/05/05 03:19:43;;;;;;;;;;;;;;;1.92;68.80;100181.38;1670155;84;20176;-73
2022/05/05 03:22:09;;;;;;;;;;;;;;;2.01;68.70;100184.52;1657670;84;20088;-73
2022/05/05 03:24:37;;;;;;;;;;;;;;;2.10;68.32;100192.53;1655272;85;21080;-74
2022/05/05 03:27:04;;;;;;;;;;;;;;;2.20;68.12;100194.06;1669562;84;20091;-74
2022/05/05 03:29:32;;;;;;;;;;;;;;;2.28;67.69;100194.19;1659699;84;20088;-73
2022/05/05 03:31:59;;;;;;;;;;;;;;;2.37;67.48;100195.94;1658910;85;20670;-73
2022/05/05 03:34:25;;;;;;;;;;;;;;;2.47;67.06;100195.56;1666250;84;20109;-73
2022/05/05 03:36:52;;;;;;;;;;;;;;;2.59;66.60;100200.91;1662977;84;21147;-74
2022/05/05 03:39:19;;;;;;;;;;;;;;;2.68;65.93;100199.95;1664271;84;20443;-73
2022/05/05 03:41:45;;;;;;;;;;;;;;;2.79;65.78;100209.88;1675829;83;20120;-73
2022/05/05 03:44:12;;;;;;;;;;;;;;;2.88;65.33;100207.04;1662554;84;20146;-74
2022/05/05 03:46:38;;;;;;;;;;;;;;;2.97;65.11;100219.08;1659051;85;20259;-73
2022/05/05 03:49:04;;;;;;;;;;;;;;;3.07;65.04;100212.97;1655658;85;21970;-73
2022/05/05 03:51:31;;;;;;;;;;;;;;;3.19;64.61;100219.94;1673471;84;20124;-74
2022/05/05 03:53:57;;;;;;;;;;;;;;;3.28;64.16;100217.61;1681889;83;20430;-73
2022/05/05 03:56:23;;;;;;;;;;;;;;;3.39;64.04;100218.56;1665935;84;20120;-74
2022/05/05 03:58:50;;;;;;;;;;;;;;;3.49;63.75;100226.80;1664410;85;20132;-73
2022/05/05 04:01:16;;;;;;;;;;;;;;;3.58;63.62;100223.93;1677422;85;21249;-72
2022/05/05 04:03:43;;;;;;;;;;;;;;;3.67;63.28;100225.12;1670336;84;20087;-73
2022/05/05 04:06:10;;;;;;;;;;;;;;;3.76;62.56;100226.32;1671362;85;20104;-74
2022/05/05 04:08:38;;;;;;;;;;;;;;;3.86;62.17;100221.54;1659995;84;20099;-74
2022/05/05 04:11:07;;;;;;;;;;;;;;;3.94;61.73;100221.91;1658194;83;20088;-74
2022/05/05 04:13:34;;;;;;;;;;;;;;;4.02;60.92;100225.24;1678592;84;21128;-74
2022/05/05 04:16:00;;;;;;;;;;;;;;;4.10;60.55;100228.83;1669128;85;20167;-74
2022/05/05 04:18:27;;;;;;;;;;;;;;;4.15;60.15;100226.98;1672439;84;20177;-73
2022/05/05 04:20:53;;;;;;;;;;;;;;;4.21;60.16;100230.57;1655179;85;20148;-73
2022/05/05 04:23:19;;;;;;;;;;;;;;;4.27;59.92;100234.44;1655341;84;20108;-74
2022/05/05 04:25:47;;;;;;;;;;;;;;;4.33;60.09;100227.16;1669739;85;21141;-74
2022/05/05 04:28:15;;;;;;;;;;;;;;;4.38;59.74;100227.20;1678170;84;20120;-73
2022/05/05 04:30:41;;;;;;;;;;;;;;;4.43;59.45;100226.42;1662620;84;20155;-73
2022/05/05 04:33:08;;;;;;;;;;;;;;;4.50;59.55;100229.21;1681237;84;20151;-74
2022/05/05 04:35:35;;;;;;;;;;;;;;;4.58;59.37;100226.02;1668608;84;20108;-74
2022/05/05 04:38:03;;;;;;;;;;;;;;;4.65;58.88;100227.95;1674378;84;21252;-74
2022/05/05 04:40:31;;;;;;;;;;;;;;;4.73;59.05;100234.81;1693584;84;20099;-73
2022/05/05 04:42:57;;;;;;;;;;;;;;;4.83;59.21;100229.98;1679858;84;20427;-73
2022/05/05 04:45:24;;;;;;;;;;;;;;;4.93;59.11;100231.42;1665476;84;20152;-73
2022/05/05 04:47:50;;;;;;;;;;;;;;;5.02;58.74;100243.45;1668129;84;20116;-74
2022/05/05 04:50:19;;;;;;;;;;;;;;;5.08;58.92;100239.69;1674448;85;21120;-75
2022/05/05 04:52:46;;;;;;;;;;;;;;;5.17;58.27;100245.45;1674301;84;20099;-74
2022/05/05 04:55:12;;;;;;;;;;;;;;;5.25;57.54;100253.09;1656138;85;20120;-75
2022/05/05 04:57:38;;;;;;;;;;;;;;;5.30;57.60;100248.50;1657395;84;20442;-75
2022/05/05 05:00:06;;;;;;;;;;;;;;;5.39;57.71;100256.98;1661658;85;20303;-78
2022/05/05 05:02:33;;;;;;;;;;;;;;;5.50;57.62;100253.78;1675040;84;21186;-78
2022/05/05 05:05:00;;;;;;;;;;;;;;;5.61;57.25;100249.48;1671228;85;20447;-78
2022/05/05 05:07:26;;;;;;;;;;;;;;;5.75;56.81;100252.53;1663968;85;20115;-76
2022/05/05 05:09:53;;;;;;;;;;;;;;;5.90;56.00;100249.05;1666487;84;20176;-76
2022/05/05 05:12:19;;;;;;;;;;;;;;;6.03;55.43;100250.45;1666671;84;20108;-77
2022/05/05 05:14:46;;;;;;;;;;;;;;;6.14;55.07;100254.30;1670468;84;21772;-76
2022/05/05 05:17:12;;;;;;;;;;;;;;;6.28;54.30;100258.69;1666957;85;20087;-76
2022/05/05 05:19:38;;;;;;;;;;;;;;;6.40;53.31;100250.23;1678158;83;20103;-75
2022/05/05 05:22:05;;;;;;;;;;;;;;;6.51;53.04;100251.33;1664344;85;20116;-76
2022/05/05 05:24:33;;;;;;;;;;;;;;;6.69;54.09;100260.07;1661812;85;20092;-75
2022/05/05 05:26:59;;;;;;;;;;;;;;;6.85;51.63;100258.98;1670738;83;21150;-75
2022/05/05 05:29:25;;;;;;;;;;;;;;;6.95;51.15;100254.30;1688653;82;20100;-74
2022/05/05 05:31:52;;;;;;;;;;;;;;;7.04;50.78;100262.76;1699363;84;20147;-74
2022/05/05 05:34:18;;;;;;;;;;;;;;;7.14;51.36;100257.83;1691705;84;20851;-73
2022/05/05 05:36:45;;;;;;;;;;;;;;;7.25;51.38;100257.54;1685362;83;20082;-75
2022/05/05 05:39:11;;;;;;;;;;;;;;;7.39;49.85;100264.61;1678193;83;21122;-75
2022/05/05 05:41:38;;;;;;;;;;;;;;;7.47;49.69;100267.33;1677380;85;20092;-74
2022/05/05 05:44:05;;;;;;;;;;;;;;;7.53;50.26;100267.55;1668741;85;20137;-75
2022/05/05 05:46:31;;;;;;;;;;;;;;;7.63;50.63;100270.25;1669323;85;20104;-76
2022/05/05 05:48:58;;;;;;;;;;;;;;;7.77;50.24;100271.84;1676623;85;20144;-74
2022/05/05 05:51:24;;;;;;;;;;;;;;;7.84;49.15;100271.81;1671710;85;21176;-75
2022/05/05 05:53:52;;;;;;;;;;;;;;;7.92;49.70;100274.52;1670505;85;20431;-75
2022/05/05 05:56:18;;;;;;;;;;;;;;;8.02;48.60;100274.47;1679536;84;20461;-77
2022/05/05 05:58:44;;;;;;;;;;;;;;;8.13;48.63;100267.82;1708697;83;20117;-81
2022/05/05 06:01:11;;;;;;;;;;;;;;;8.23;48.64;100269.12;1702980;84;20090;-81
2022/05/05 06:03:56;;;;;;;;;;;;;;;8.38;48.43;100273.73;1642753;85;21156;-76
2022/05/05 06:06:24;;;;;;;;;;;;;;;8.53;47.62;100268.16;1650188;86;20449;-77
2022/05/05 06:08:50;;;;;;;;;;;;;;;8.67;47.44;100274.32;1640325;86;20167;-77
2022/05/05 06:11:18;;;;;;;;;;;;;;;8.79;47.09;100277.52;1635951;84;20151;-76
2022/05/05 06:13:45;;;;;;;;;;;;;;;8.89;46.81;100287.02;1636641;86;20150;-71
2022/05/05 06:16:11;;;;;;;;;;;;;;;8.97;46.48;100282.84;1641953;86;20567;-72
2022/05/05 06:18:39;;;;;;;;;;;;;;;9.08;46.89;100281.10;1636987;85;20154;-69
2022/05/05 06:21:06;;;;;;;;;;;;;;;9.19;44.49;100277.72;1643233;86;20145;-72
2022/05/05 06:23:33;;;;;;;;;;;;;;;9.25;44.74;100273.79;1633161;84;20632;-78
2022/05/05 06:25:59;;;;;;;;;;;;;;;9.31;45.30;100279.48;1680628;83;20158;-75
2022/05/05 06:28:25;;;;;;;;;;;;;;;9.38;43.92;100273.66;1688633;84;21122;-74
2022/05/05 06:30:53;;;;;;;;;;;;;;;9.44;44.49;100277.98;1687630;84;20456;-76
2022/05/05 06:33:19;;;;;;;;;;;;;;;9.55;42.61;100278.14;1686641;84;20726;-76
2022/05/05 06:35:45;;;;;;;;;;;;;;;9.68;42.87;100287.05;1689394;84;20621;-73
2022/05/05 06:38:12;;;;;;;;;;;;;;;9.77;44.40;100292.14;1692361;84;20113;-77
2022/05/05 06:40:40;;;;;;;;;;;;;;;9.90;41.78;100287.30;1690704;84;21151;-78
2022/05/05 06:43:07;;;;;;;;;;;;;;;9.98;42.58;100285.02;1688578;84;20086;-72
2022/05/05 06:45:34;;;;;;;;;;;;;;;10.08;41.86;100292.56;1690039;84;20128;-80
2022/05/05 06:48:01;;;;;;;;;;;;;;;10.17;40.74;100296.84;1685255;84;20706;-72
2022/05/05 06:50:28;;;;;;;;;;;;;;;10.25;40.95;100298.41;1687975;84;20117;-79
2022/05/05 06:52:59;;;;;;;;;;;;;;;10.36;40.11;100297.70;1688691;84;21105;-75
2022/05/05 06:55:23;;;;;;;;;;;;;;;10.39;39.20;100297.12;1688670;84;20128;-81
2022/05/05 06:57:49;;;;;;;;;;;;;;;10.43;40.95;100298.68;1687977;84;20174;-78
2022/05/05 07:00:17;;;;;;;;;;;;;;;10.58;40.96;100302.02;1682180;84;20125;-77
2022/05/05 07:02:44;;;;;;;;;;;;;;;10.76;39.43;100296.27;1663697;84;20156;-75
2022/05/05 07:05:27;;;;;;;;;;;;;;;10.87;39.71;100297.73;1661519;85;21091;-73
2022/05/05 07:07:56;;;;;;;;;;;;;;;10.96;37.14;100301.99;1663091;85;20135;-81
2022/05/05 07:13:09;;;;;;;;;;;;;;;11.10;38.25;100295.14;1666171;82;20676;-84
2022/05/05 07:15:37;;;;;;;;;;;;;;;11.10;38.02;100302.83;1680894;84;20123;-76
2022/05/05 07:18:04;;;;;;;;;;;;;;;11.11;37.79;100302.27;1686725;82;21813;-86
2022/05/05 07:20:30;;;;;;;;;;;;;;;11.17;38.73;100301.06;1681444;82;20203;-85
2022/05/05 07:22:57;;;;;;;;;;;;;;;11.27;38.82;100300.89;1687986;83;20151;-84
2022/05/05 07:25:26;;;;;;;;;;;;;;;11.40;38.01;100300.66;1685150;83;20650;-84
2022/05/05 07:27:56;;;;;;;;;;;;;;;11.48;36.96;100305.47;1676634;83;20435;-85
2022/05/05 07:30:29;;;;;;;;;;;;;;;11.50;37.58;100305.98;1665771;84;20095;-80
2022/05/05 07:33:02;;;;;;;;;;;;;;;11.57;37.42;100308.55;1703260;84;20086;-69
2022/05/05 07:35:27;;;;;;;;;;;;;;;11.65;37.42;100313.09;1667498;84;20146;-80
2022/05/05 07:37:54;;;;;;;;;;;;;;;11.72;37.08;100296.45;1665973;84;20654;-83
2022/05/05 07:40:21;;;;;;;;;;;;;;;11.79;34.86;100297.45;1663523;84;20134;-76
2022/05/05 07:42:47;;;;;;;;;;;;;;;11.85;34.74;100301.73;1667358;84;21028;-85
2022/05/05 07:45:13;;;;;;;;;;;;;;;11.82;34.59;100307.28;1663653;84;20101;-76
2022/05/05 07:47:40;;;;;;;;;;;;;;;11.87;35.00;100304.99;1672274;84;20450;-77
2022/05/05 07:50:08;;;;;;;;;;;;;;;11.99;36.09;100306.67;1678572;84;20093;-76
2022/05/05 07:52:34;;;;;;;;;;;;;;;12.14;35.94;100311.83;1674381;84;20112;-77
2022/05/05 07:55:00;;;;;;;;;;;;;;;12.31;36.58;100303.50;1657127;85;21154;-79
2022/05/05 07:57:31;;;;;;;;;;;;;;;12.60;35.86;100307.27;1659729;85;20269;-86
2022/05/05 07:59:56;;;;;;;;;;;;;;;12.91;35.00;100317.79;1671297;85;20076;-84
2022/05/05 08:02:22;;;;;;;;;;;;;;;13.20;34.11;100304.42;1660087;86;20630;-81
2022/05/05 08:04:50;;;;;;;;;;;;;;;13.53;34.08;100299.95;1638391;86;20171;-77
2022/05/05 08:07:16;;;;;;;;;;;;;;;13.84;32.24;100299.37;1674126;85;21557;-88
2022/05/05 08:09:43;;;;;;;;;;;;;;;14.13;32.15;100297.40;1665081;85;20154;-75
2022/05/05 08:12:11;;;;;;;;;;;;;;;14.43;31.88;100297.09;1664164;84;20093;-77
2022/05/05 08:14:37;;;;;;;;;;;;;;;14.60;29.36;100296.83;1652135;85;20094;-77
2022/05/05 08:17:04;;;;;;;;;;;;;;;14.59;30.28;100301.55;1650978;85;20118;-76
2022/05/05 08:19:30;;;;;;;;;;;;;;;14.54;29.68;100294.80;1668466;84;21567;-78
2022/05/05 08:21:58;;;;;;;;;;;;;;;14.49;31.61;100299.09;1670749;84;20118;-79
2022/05/05 08:29:54;;;;;;;;;;;;;;;15.11;29.00;100290.44;1663993;86;20118;-75
2022/05/05 08:32:21;;;;;;;;;;;;;;;14.97;27.42;100285.13;1671546;85;21088;-76
2022/05/05 08:34:48;;;;;;;;;;;;;;;14.91;31.17;100291.95;1671487;85;20174;-76
2022/05/05 08:37:14;;;;;;;;;;;;;;;15.02;29.62;100282.76;1663735;84;20129;-83
2022/05/05 08:39:40;;;;;;;;;;;;;;;15.24;31.77;100287.25;1685117;83;20111;-77
2022/05/05 08:42:07;;;;;;;;;;;;;;;15.51;28.79;100278.55;1665252;83;20140;-75
2022/05/05 08:44:33;;;;;;;;;;;;;;;15.55;29.10;100285.05;1666034;85;21142;-73
2022/05/05 08:47:00;;;;;;;;;;;;;;;15.67;29.28;100275.48;1670225;83;20084;-76
2022/05/05 08:49:26;;;;;;;;;;;;;;;15.93;29.90;100280.09;1677424;83;20119;-76
2022/05/05 08:52:12;;;;;;;;;;;;;;;16.13;28.99;100276.56;1691680;84;20426;-76
2022/05/05 08:54:38;;;;;;;;;;;;;;;16.37;29.82;100290.56;1703541;84;20189;-76
2022/05/05 08:57:05;;;;;;;;;;;;;;;16.73;29.30;100287.23;1696672;84;21117;-72
2022/05/05 08:59:33;;;;;;;;;;;;;;;17.00;28.57;100297.49;1700355;83;20133;-74
2022/05/05 09:01:59;;;;;;;;;;;;;;;17.03;28.00;100289.88;1702876;83;20149;-77
2022/05/05 09:04:26;;;;;;;;;;;;;;;17.12;26.86;100289.22;1696767;83;20140;-75
2022/05/05 09:06:53;;;;;;;;;;;;;;;17.26;27.99;100286.14;1697895;83;20124;-73
2022/05/05 09:09:29;;;;;;;;;;;;;;;17.35;27.48;100289.03;1691614;83;21172;-72
2022/05/05 09:12:16;;;;;;;;;;;;;;;17.51;27.49;100285.02;1698393;83;20076;-72
2022/05/05 09:14:51;;;;;;;;;;;;;;;17.77;28.25;100288.91;1681009;83;20510;-73
2022/05/05 09:17:29;;;;;;;;;;;;;;;17.84;27.65;100289.73;1690988;84;20122;-73
2022/05/05 09:19:56;;;;;;;;;;;;;;;17.73;26.72;100288.80;1700584;84;20110;-73
2022/05/05 09:22:24;;;;;;;;;;;;;;;17.59;25.94;100296.61;1695135;83;21134;-76
2022/05/05 09:24:52;;;;;;;;;;;;;;;17.34;26.87;100301.28;1697905;84;20449;-74
2022/05/05 09:27:22;;;;;;;;;;;;;;;17.03;26.30;100296.23;1699472;83;20149;-76
2022/05/05 09:30:12;;;;;;;;;;;;;;;17.02;27.84;100291.84;1655865;84;20447;-79
2022/05/05 09:32:45;;;;;;;;;;;;;;;17.22;27.30;100292.14;1647611;85;20170;-78
2022/05/05 09:35:17;;;;;;;;;;;;;;;17.32;27.73;100295.30;1653454;85;21832;-78
2022/05/05 09:37:50;;;;;;;;;;;;;;;17.34;27.49;100295.73;1655987;85;20130;-84
2022/05/05 09:40:20;;;;;;;;;;;;;;;17.52;27.43;100296.94;1652794;85;20434;-73
2022/05/05 09:42:52;;;;;;;;;;;;;;;17.80;27.17;100292.39;1657667;85;20452;-86
2022/05/05 09:45:31;;;;;;;;;;;;;;;17.81;24.73;100292.04;1656189;86;20150;-78
2022/05/05 09:48:23;;;;;;;;;;;;;;;17.94;26.27;100282.30;1642281;86;21158;-80
2022/05/05 09:50:38;;;;;;;;;;;;;;;18.09;26.20;100278.82;1663138;85;20430;-82
2022/05/05 09:58:39;;;;;;;;;;;;;;;17.84;24.90;100278.63;1673633;84;20116;-77
2022/05/05 10:01:10;;;;;;;;;;;;;;;17.89;25.79;100273.64;1669227;85;21270;-74
2022/05/05 10:04:00;;;;;;;;;;;;;;;18.00;27.65;100278.94;1702762;82;20098;-75
2022/05/05 10:06:32;;;;;;;;;;;;;;;18.22;27.09;100275.45;1680909;82;20116;-76
2022/05/05 10:09:16;;;;;;;;;;;;;;;18.46;25.42;100276.81;1674715;83;20633;-74
2022/05/05 10:11:42;;;;;;;;;;;;;;;18.40;26.15;100272.66;1663652;85;20120;-76
2022/05/05 10:14:11;;;;;;;;;;;;;;;18.46;24.08;100272.64;1664191;85;21107;-77
2022/05/05 10:16:38;;;;;;;;;;;;;;;18.49;25.71;100278.28;1667747;84;20108;-77
2022/05/05 10:19:06;;;;;;;;;;;;;;;18.75;25.65;100274.30;1674519;84;20092;-76
2022/05/05 10:22:05;;;;;;;;;;;;;;;18.96;25.78;100270.75;1658086;84;20640;-76
2022/05/05 10:24:46;;;;;;;;;;;;;;;19.14;26.12;100265.07;1630049;85;20149;-78
2022/05/05 10:27:19;;;;;;;;;;;;;;;19.16;25.27;100261.94;1616414;87;20090;-77
2022/05/05 10:29:46;;;;;;;;;;;;;;;19.26;25.23;100269.77;1629921;86;20840;-82
2022/05/05 10:32:19;;;;;;;;;;;;;;;19.22;25.42;100268.05;1573890;89;20448;-80
2022/05/05 10:34:55;;;;;;;;;;;;;;;19.08;25.94;100266.48;1625427;87;20179;-78
2022/05/05 10:37:38;;;;;;;;;;;;;;;18.97;25.23;100266.80;1616823;86;20121;-79
2022/05/05 10:40:08;;;;;;;;;;;;;;;19.13;25.68;100265.42;1626178;85;20205;-72
2022/05/05 10:42:45;;;;;;;;;;;;;;;19.10;24.08;100261.37;1645080;86;20457;-74
2022/05/05 10:45:19;;;;;;;;;;;;;;;18.98;24.98;100250.92;1655994;83;20157;-71
2022/05/05 10:47:58;;;;;;;;;;;;;;;19.05;25.96;100256.09;1687363;83;20205;-73
2022/05/05 10:50:52;;;;;;;;;;;;;;;19.07;25.33;100255.13;1683518;83;20456;-75
2022/05/05 10:53:40;;;;;;;;;;;;;;;19.37;25.09;100254.74;1685374;84;21788;-77
2022/05/05 10:56:27;;;;;;;;;;;;;;;19.44;22.80;100255.73;1664124;85;20306;-72
2022/05/05 10:59:04;;;;;;;;;;;;;;;19.55;23.33;100246.30;1614318;85;20431;-72
2022/05/05 11:01:48;;;;;;;;;;;;;;;19.34;24.62;100253.48;1601029;87;20206;-73
2022/05/05 11:04:20;;;;;;;;;;;;;;;19.34;24.54;100249.89;1605864;87;20147;-73
2022/05/05 11:06:49;;;;;;;;;;;;;;;19.55;24.55;100257.44;1579492;88;21291;-73
2022/05/05 11:09:36;;;;;;;;;;;;;;;19.70;25.08;100249.64;1630921;86;20446;-78
2022/05/05 11:12:15;;;;;;;;;;;;;;;19.60;22.43;100247.42;1642470;85;20171;-75
2022/05/05 11:23:35;;;;;;;;;;;;;;;19.23;24.24;100244.62;1640453;86;20301;-80
2022/05/05 11:26:12;;;;;;;;;;;;;;;19.31;23.57;100250.60;1623479;85;20157;-80
2022/05/05 11:28:37;;;;;;;;;;;;;;;19.50;23.89;100242.95;1678143;84;20117;-79
2022/05/05 11:31:11;;;;;;;;;;;;;;;19.52;23.41;100230.89;1691049;84;20431;-78
2022/05/05 11:33:39;;;;;;;;;;;;;;;19.54;22.71;100236.33;1634443;86;20121;-78
2022/05/05 11:36:08;;;;;;;;;;;;;;;19.40;23.99;100240.91;1681056;82;20154;-78
2022/05/05 11:38:41;;;;;;;;;;;;;;;19.39;22.45;100239.30;1637624;84;20450;-80
2022/05/05 11:41:08;;;;;;;;;;;;;;;19.52;22.23;100235.07;1670586;84;20105;-78
2022/05/05 11:46:20;;;;;;;;;;;;;;;19.88;24.41;100233.37;1654969;85;21112;-81
2022/05/05 11:48:55;;;;;;;;;;;;;;;20.21;23.07;100224.59;1636947;85;20111;-80
2022/05/05 11:51:29;;;;;;;;;;;;;;;20.43;24.61;100230.05;1648138;86;20082;-81
2022/05/05 11:54:05;;;;;;;;;;;;;;;20.61;24.31;100231.24;1649374;84;20639;-79
2022/05/05 11:56:36;;;;;;;;;;;;;;;20.90;23.07;100220.05;1643372;84;20171;-79
2022/05/05 12:02:09;;;;;;;;;;;;;;;21.19;22.87;100226.17;1631350;85;20153;-80
2022/05/05 12:04:35;;;;;;;;;;;;;;;21.20;23.17;100221.62;1639472;86;20433;-79
2022/05/05 12:07:08;;;;;;;;;;;;;;;21.55;22.55;100223.44;1657880;86;20698;-79
2022/05/05 12:09:41;;;;;;;;;;;;;;;21.83;21.18;100225.89;1629844;84;20183;-69
2022/05/05 12:12:16;;;;;;;;;;;;;;;21.53;19.96;100226.60;1634843;86;20159;-75
2022/05/05 12:15:07;;;;;;;;;;;;;;;21.03;22.12;100221.50;1624249;85;20104;-77
2022/05/05 12:17:34;;;;;;;;;;;;;;;20.92;20.24;100217.69;1632619;85;20175;-77
2022/05/05 12:20:07;;;;;;;;;;;;;;;20.76;21.66;100222.58;1596950;88;20110;-76
2022/05/05 12:22:38;;;;;;;;;;;;;;;20.54;22.24;100217.14;1609051;87;20145;-77
2022/05/05 12:25:21;;;;;;;;;;;;;;;20.53;21.46;100218.91;1595826;87;21822;-76
2022/05/05 12:28:04;;;;;;;;;;;;;;;20.65;22.29;100215.38;1644589;85;20089;-74
2022/05/05 12:30:36;;;;;;;;;;;;;;;20.76;21.38;100209.44;1627468;87;20096;-83
2022/05/05 12:33:05;;;;;;;;;;;;;;;20.76;20.86;100210.83;1645732;86;20440;-83
2022/05/05 12:35:36;;;;;;;;;;;;;;;20.70;21.11;100212.89;1656969;85;20194;-84
2022/05/05 12:38:04;;;;;;;;;;;;;;;20.74;20.89;100213.77;1659497;84;21793;-84
2022/05/05 12:40:33;;;;;;;;;;;;;;;20.82;20.73;100213.30;1689058;82;20135;-85
2022/05/05 12:43:07;;;;;;;;;;;;;;;20.86;20.36;100202.42;1695858;82;20497;-82
2022/05/05 12:45:36;;;;;;;;;;;;;;;20.85;20.27;100199.41;1660991;85;20120;-76
2022/05/05 12:48:04;;;;;;;;;;;;;;;21.06;20.86;100192.04;1668729;85;20146;-76
2022/05/05 12:50:46;;;;;;;;;;;;;;;21.27;21.17;100193.05;1670015;84;21191;-72
2022/05/05 13:01:53;;;;;;;;;;;;;;;21.85;19.42;100185.21;1661273;84;20171;-79
2022/05/05 13:04:21;;;;;;;;;;;;;;;21.68;19.17;100184.34;1670294;85;21181;-74
2022/05/05 13:06:53;;;;;;;;;;;;;;;21.53;19.76;100181.91;1684579;84;20075;-80
2022/05/05 13:09:21;;;;;;;;;;;;;;;21.59;21.39;100183.80;1671672;84;20076;-83
2022/05/05 13:11:52;;;;;;;;;;;;;;;21.77;21.86;100187.68;1668506;84;20610;-78
2022/05/05 13:14:17;;;;;;;;;;;;;;;22.03;21.15;100175.70;1668424;85;20091;-77
2022/05/05 13:16:45;;;;;;;;;;;;;;;22.38;19.26;100179.58;1666499;84;21980;-75
2022/05/05 13:19:13;;;;;;;;;;;;;;;22.55;19.20;100169.17;1656854;84;20130;-76
2022/05/05 13:21:40;;;;;;;;;;;;;;;22.67;18.70;100175.11;1635195;85;20505;-78
2022/05/05 13:24:10;;;;;;;;;;;;;;;22.66;19.92;100172.09;1641239;85;20127;-75
2022/05/05 13:26:37;;;;;;;;;;;;;;;22.65;19.19;100174.09;1692975;83;20075;-74
2022/05/05 13:29:04;;;;;;;;;;;;;;;22.51;18.27;100170.34;1682969;83;21224;-73
2022/05/05 13:31:30;;;;;;;;;;;;;;;22.18;19.46;100173.91;1695741;82;20480;-75
2022/05/05 13:33:58;;;;;;;;;;;;;;;22.17;20.52;100172.30;1695389;83;20128;-76
2022/05/05 13:36:26;;;;;;;;;;;;;;;22.28;19.51;100174.64;1693298;82;20174;-75